Time;durP1;ratioP1;P1;durP2;ratioP2;P2;SDS_P1;SDS_P2;PMS_P1;PMS_P2;Temp;Humidity;BMP_temperature;BMP_pressure;BME280_temperature;BME280_humidity;BME280_pressure;Samples;Min_cycle;Max_cycle;Signal;HPM_P1;HPM_P2
2021/08/12 00:00:41;;;;;;;16.53;9.13;;;15.30;97.30;;;;;;5037170;28;20512;-83
2021/08/12 00:03:10;;;;;;;14.57;8.37;;;15.30;97.30;;;;;;5037218;28;20184;-84
2021/08/12 00:05:35;;;;;;;12.37;8.20;;;15.30;97.30;;;;;;5037235;28;20582;-84
2021/08/12 00:08:01;;;;;;;13.20;7.80;;;15.30;97.30;;;;;;5037268;28;20449;-83
2021/08/12 00:10:26;;;;;;;14.90;7.93;;;15.30;97.30;;;;;;5037180;28;20584;-84
2021/08/12 00:12:52;;;;;;;9.83;7.23;;;15.20;97.30;;;;;;5037703;28;20183;-84
2021/08/12 00:15:18;;;;;;;11.63;8.03;;;15.20;97.30;;;;;;5036924;28;20234;-84
2021/08/12 00:17:43;;;;;;;14.97;7.37;;;15.20;97.30;;;;;;5021677;28;20182;-84
2021/08/12 00:20:09;;;;;;;10.67;6.60;;;15.10;97.30;;;;;;5017684;28;20681;-83
2021/08/12 00:22:35;;;;;;;12.33;6.43;;;15.10;97.30;;;;;;5017505;28;20519;-84
2021/08/12 00:25:01;;;;;;;15.90;7.90;;;15.00;97.30;;;;;;5017569;28;20426;-84
2021/08/12 00:27:26;;;;;;;12.13;7.37;;;15.00;97.30;;;;;;5017004;28;20207;-83
2021/08/12 00:29:52;;;;;;;12.70;7.93;;;15.00;97.30;;;;;;5035284;28;20156;-84
2021/08/12 00:32:18;;;;;;;11.40;6.97;;;15.00;97.30;;;;;;5017007;28;20650;-83
2021/08/12 00:34:44;;;;;;;12.73;8.17;;;15.00;97.30;;;;;;5016422;28;20230;-84
2021/08/12 00:37:09;;;;;;;11.87;7.07;;;15.00;97.30;;;;;;5016918;28;20172;-84
2021/08/12 00:39:35;;;;;;;12.37;7.03;;;14.90;97.30;;;;;;5016843;28;20222;-84
2021/08/12 00:42:00;;;;;;;13.37;7.33;;;14.90;97.30;;;;;;5017396;28;20260;-84
2021/08/12 00:44:26;;;;;;;12.20;7.80;;;14.90;97.30;;;;;;5015638;28;20176;-84
2021/08/12 00:46:52;;;;;;;13.03;7.17;;;14.80;97.30;;;;;;5017040;28;20208;-83
2021/08/12 00:49:18;;;;;;;10.80;5.70;;;14.80;97.30;;;;;;5016636;28;20204;-84
2021/08/12 00:51:44;;;;;;;10.23;5.90;;;14.80;97.30;;;;;;5017403;28;20169;-83
2021/08/12 00:54:11;;;;;;;11.17;6.70;;;14.80;97.30;;;;;;5016783;28;20457;-84
2021/08/12 00:56:36;;;;;;;13.10;7.10;;;14.80;97.30;;;;;;5017149;28;20372;-86
2021/08/12 00:59:02;;;;;;;11.70;6.20;;;14.80;97.30;;;;;;5017589;28;20440;-85
2021/08/12 01:01:28;;;;;;;10.03;5.67;;;14.80;97.30;;;;;;5017753;28;21036;-85
2021/08/12 01:03:58;;;;;;;7.30;5.30;;;14.70;97.30;;;;;;5016720;28;20183;-86
2021/08/12 01:06:33;;;;;;;10.07;5.80;;;14.70;97.30;;;;;;5016028;28;20208;-86
2021/08/12 01:09:09;;;;;;;9.07;5.33;;;14.70;97.30;;;;;;5016309;28;20507;-85
2021/08/12 01:11:46;;;;;;;7.97;5.23;;;14.70;97.30;;;;;;5016528;28;20450;-85
2021/08/12 01:14:49;;;;;;;13.90;5.93;;;14.70;97.30;;;;;;5015913;28;20784;-86
2021/08/12 01:17:29;;;;;;;11.90;6.50;;;14.60;97.30;;;;;;5045496;28;20414;-85
2021/08/12 01:20:00;;;;;;;12.57;8.00;;;14.60;97.30;;;;;;5036003;28;20803;-86
2021/08/12 01:22:27;;;;;;;12.40;7.23;;;14.60;97.30;;;;;;5035820;28;20426;-86
2021/08/12 01:24:57;;;;;;;12.07;7.10;;;14.60;97.30;;;;;;5035867;28;20490;-84
2021/08/12 01:27:27;;;;;;;11.90;7.40;;;14.50;97.30;;;;;;5035376;28;20969;-84
2021/08/12 01:30:05;;;;;;;11.43;7.50;;;14.50;97.30;;;;;;5035703;28;20792;-84
2021/08/12 01:33:06;;;;;;;12.03;6.60;;;14.50;97.30;;;;;;5035538;28;20460;-84
2021/08/12 01:35:33;;;;;;;16.23;7.03;;;14.50;97.30;;;;;;5035776;28;20415;-85
2021/08/12 01:38:02;;;;;;;9.90;6.97;;;14.40;97.30;;;;;;5035340;28;20548;-85
2021/08/12 01:40:30;;;;;;;9.77;6.70;;;14.40;97.30;;;;;;5035158;28;20431;-84
2021/08/12 01:42:58;;;;;;;13.80;6.73;;;14.40;97.30;;;;;;5035695;28;20418;-84
2021/08/12 01:45:25;;;;;;;13.53;7.87;;;14.40;97.30;;;;;;5052653;28;20434;-84
2021/08/12 01:47:52;;;;;;;9.90;6.70;;;14.40;97.30;;;;;;5035358;28;20527;-85
2021/08/12 01:50:19;;;;;;;11.87;6.73;;;14.40;97.30;;;;;;5035777;28;20764;-84
2021/08/12 01:52:50;;;;;;;13.00;7.47;;;14.40;97.30;;;;;;5035568;28;20421;-84
2021/08/12 01:55:22;;;;;;;11.30;6.37;;;14.30;97.30;;;;;;5035292;28;20410;-85
2021/08/12 01:57:48;;;;;;;11.33;6.70;;;14.30;97.30;;;;;;5035114;28;20442;-84
2021/08/12 02:00:14;;;;;;;10.50;5.60;;;14.30;97.30;;;;;;5035555;28;20411;-84
2021/08/12 02:02:41;;;;;;;6.73;4.40;;;14.30;97.30;;;;;;5034180;28;20530;-84
2021/08/12 02:05:10;;;;;;;11.33;6.50;;;14.20;97.30;;;;;;5035396;28;20785;-84
2021/08/12 02:07:37;;;;;;;9.23;6.10;;;14.20;97.30;;;;;;5035176;28;20987;-84
2021/08/12 02:10:04;;;;;;;8.93;5.97;;;14.20;97.30;;;;;;5035212;28;20513;-84
2021/08/12 02:12:29;;;;;;;5.60;4.40;;;14.20;97.30;;;;;;5034688;28;20799;-84
2021/08/12 02:14:55;;;;;;;7.83;4.60;;;14.20;97.30;;;;;;5034880;28;20414;-85
2021/08/12 02:17:21;;;;;;;6.60;4.50;;;14.20;97.30;;;;;;5035044;28;20187;-85
2021/08/12 02:19:47;;;;;;;3.30;3.03;;;14.10;97.30;;;;;;5035449;28;20196;-85
2021/08/12 02:22:21;;;;;;;4.40;3.50;;;14.10;97.30;;;;;;5035731;28;20187;-84
2021/08/12 02:25:04;;;;;;;3.90;3.13;;;14.10;97.30;;;;;;5034910;28;20422;-83
2021/08/12 02:27:33;;;;;;;4.37;3.30;;;14.10;97.30;;;;;;5053210;28;20484;-84
2021/08/12 02:29:59;;;;;;;6.37;4.30;;;14.00;97.30;;;;;;5034756;28;20477;-83
2021/08/12 02:32:30;;;;;;;6.10;3.70;;;14.00;97.30;;;;;;5034843;28;20414;-83
2021/08/12 02:34:57;;;;;;;8.03;5.27;;;14.00;97.30;;;;;;5034609;28;20184;-84
2021/08/12 02:37:25;;;;;;;11.37;6.37;;;14.00;97.30;;;;;;5034433;28;20415;-85
2021/08/12 02:39:52;;;;;;;8.63;6.00;;;14.00;97.30;;;;;;5035335;28;20476;-84
2021/08/12 02:42:18;;;;;;;11.60;5.90;;;14.00;97.30;;;;;;5034894;28;20422;-84
2021/08/12 02:44:45;;;;;;;11.00;6.53;;;14.00;97.30;;;;;;5034900;28;20927;-84
2021/08/12 02:47:14;;;;;;;11.47;6.40;;;13.90;97.30;;;;;;5034432;28;20465;-84
2021/08/12 02:49:46;;;;;;;8.90;5.67;;;13.90;97.30;;;;;;5034995;28;20439;-84
2021/08/12 02:52:13;;;;;;;8.00;5.70;;;13.90;97.30;;;;;;5035282;28;20411;-84
2021/08/12 02:54:40;;;;;;;9.63;5.57;;;13.90;97.30;;;;;;5034445;28;20445;-84
2021/08/12 02:57:06;;;;;;;9.33;5.67;;;13.90;97.30;;;;;;5052679;28;20414;-83
2021/08/12 02:59:32;;;;;;;11.30;6.47;;;13.90;97.30;;;;;;5053020;28;20438;-84
2021/08/12 03:01:58;;;;;;;10.40;5.87;;;13.90;97.30;;;;;;5034922;28;20464;-84
2021/08/12 03:04:24;;;;;;;9.90;5.80;;;13.90;97.30;;;;;;5035228;28;20423;-84
2021/08/12 03:06:54;;;;;;;9.47;6.07;;;13.90;97.30;;;;;;5034775;28;20473;-83
2021/08/12 03:09:21;;;;;;;15.43;7.67;;;13.90;97.30;;;;;;5056501;28;20188;-85
2021/08/12 03:11:47;;;;;;;8.73;6.40;;;13.80;97.30;;;;;;5056480;28;20440;-84
2021/08/12 03:14:14;;;;;;;9.47;6.43;;;13.80;97.30;;;;;;5039449;28;20830;-84
2021/08/12 03:16:40;;;;;;;13.47;6.00;;;13.80;97.30;;;;;;5031882;28;20584;-84
2021/08/12 03:19:06;;;;;;;10.30;6.60;;;13.80;97.30;;;;;;5019367;28;20493;-84
2021/08/12 03:21:31;;;;;;;13.33;6.93;;;13.80;97.30;;;;;;5018694;28;20831;-85
2021/08/12 03:24:01;;;;;;;13.73;7.77;;;13.80;97.30;;;;;;5019679;28;20615;-84
2021/08/12 03:26:27;;;;;;;12.90;8.10;;;13.80;97.30;;;;;;5037351;28;20192;-84
2021/08/12 03:28:53;;;;;;;17.17;9.00;;;13.80;97.30;;;;;;5019094;28;20796;-84
2021/08/12 03:31:19;;;;;;;15.07;8.60;;;13.80;97.30;;;;;;5036149;28;20415;-85
2021/08/12 03:33:44;;;;;;;15.90;9.30;;;13.80;97.30;;;;;;5019198;28;20184;-85
2021/08/12 03:36:10;;;;;;;16.97;9.40;;;13.80;97.30;;;;;;5019183;28;20207;-84
2021/08/12 03:38:36;;;;;;;20.87;9.40;;;13.80;97.30;;;;;;5018391;28;20254;-84
2021/08/12 03:41:04;;;;;;;24.33;9.37;;;13.90;97.30;;;;;;5040765;23;20228;-92
2021/08/12 03:43:30;;;;;;;15.43;8.40;;;13.90;97.30;;;;;;5023072;28;20240;-92
2021/08/12 03:45:58;;;;;;;19.10;10.00;;;13.90;97.30;;;;;;5038520;28;20455;-94
2021/08/12 03:48:27;;;;;;;17.13;8.70;;;13.90;97.30;;;;;;5036302;28;20418;-93
2021/08/12 03:50:55;;;;;;;14.40;8.20;;;13.90;97.30;;;;;;5030299;28;20519;-93
2021/08/12 03:53:26;;;;;;;19.90;9.63;;;13.90;97.30;;;;;;5021807;28;20594;-92
2021/08/12 03:56:00;;;;;;;17.07;8.37;;;13.90;97.30;;;;;;5015786;28;20415;-93
2021/08/12 03:58:26;;;;;;;16.17;8.70;;;13.90;97.30;;;;;;5012196;28;20437;-92
2021/08/12 04:00:55;;;;;;;22.33;9.37;;;13.90;97.30;;;;;;5008696;28;20435;-92
2021/08/12 04:03:21;;;;;;;17.30;9.10;;;13.90;97.30;;;;;;5008196;28;20470;-92
2021/08/12 04:05:46;;;;;;;15.80;9.20;;;13.90;97.30;;;;;;5012489;28;20530;-93
2021/08/12 04:08:14;;;;;;;14.60;8.70;;;13.80;97.30;;;;;;5012192;28;20513;-92
2021/08/12 04:10:40;;;;;;;16.90;8.73;;;13.90;97.30;;;;;;5008145;28;20690;-92
2021/08/12 04:13:05;;;;;;;16.13;7.77;;;13.90;97.30;;;;;;5015267;28;20500;-92
2021/08/12 04:15:31;;;;;;;16.27;9.00;;;13.90;97.30;;;;;;5021590;28;20180;-92
2021/08/12 04:17:56;;;;;;;17.07;9.20;;;13.90;97.30;;;;;;5021736;28;20177;-92
2021/08/12 04:20:22;;;;;;;16.43;8.80;;;13.90;97.30;;;;;;5020477;28;20198;-94
2021/08/12 04:22:47;;;;;;;14.43;7.80;;;13.90;97.30;;;;;;5011349;28;20529;-92
2021/08/12 04:25:15;;;;;;;18.33;9.00;;;13.90;97.30;;;;;;4999938;28;20181;-92
2021/08/12 04:27:43;;;;;;;20.43;9.00;;;13.90;97.30;;;;;;5000217;28;20271;-92
2021/08/12 04:30:10;;;;;;;13.67;7.87;;;13.90;97.30;;;;;;4997951;28;20437;-92
2021/08/12 04:32:38;;;;;;;16.67;8.10;;;13.90;97.30;;;;;;4998248;28;20420;-93
2021/08/12 04:35:05;;;;;;;15.67;8.70;;;13.90;97.30;;;;;;5000235;28;20420;-92
2021/08/12 04:37:44;;;;;;;22.87;8.50;;;13.90;97.30;;;;;;5000033;28;20479;-92
2021/08/12 04:40:11;;;;;;;15.93;7.63;;;13.90;97.30;;;;;;4998870;28;20494;-92
2021/08/12 04:42:37;;;;;;;15.40;8.17;;;13.90;97.30;;;;;;4999591;28;20428;-93
2021/08/12 04:45:04;;;;;;;15.93;9.47;;;13.90;97.30;;;;;;5000531;28;20929;-92
2021/08/12 04:47:30;;;;;;;17.93;8.50;;;14.00;97.30;;;;;;4983493;28;20212;-93
2021/08/12 04:49:57;;;;;;;17.23;9.10;;;14.00;97.30;;;;;;4999836;28;20440;-92
2021/08/12 04:52:23;;;;;;;16.63;8.40;;;14.00;97.30;;;;;;4999273;28;20173;-92
2021/08/12 04:54:51;;;;;;;21.67;9.90;;;14.00;97.30;;;;;;4999843;28;20424;-93
2021/08/12 04:57:17;;;;;;;19.20;8.43;;;14.00;97.30;;;;;;4999533;28;20503;-92
2021/08/12 04:59:43;;;;;;;15.57;7.87;;;14.10;97.30;;;;;;4999426;28;20471;-92
2021/08/12 05:02:08;;;;;;;15.93;9.10;;;14.10;97.30;;;;;;4999241;28;20188;-92
2021/08/12 05:04:34;;;;;;;24.70;10.40;;;14.10;97.30;;;;;;4998115;28;20640;-92
2021/08/12 05:07:00;;;;;;;25.07;9.23;;;14.20;97.30;;;;;;4998456;28;20252;-92
2021/08/12 05:09:26;;;;;;;19.53;9.53;;;14.20;97.30;;;;;;4998878;28;20928;-92
2021/08/12 05:11:58;;;;;;;21.83;9.47;;;14.30;97.30;;;;;;4999483;28;20660;-92
2021/08/12 05:14:27;;;;;;;18.90;9.60;;;14.30;97.30;;;;;;4999315;28;20260;-92
2021/08/12 05:16:52;;;;;;;18.80;9.53;;;14.40;97.30;;;;;;5008258;28;20429;-92
2021/08/12 05:19:18;;;;;;;16.43;9.43;;;14.40;97.30;;;;;;5018874;28;20419;-93
2021/08/12 05:21:44;;;;;;;16.83;9.27;;;14.50;97.30;;;;;;5019140;28;20181;-93
2021/08/12 05:24:09;;;;;;;20.10;10.17;;;14.50;97.30;;;;;;5019422;28;20172;-92
2021/08/12 05:26:35;;;;;;;16.90;8.80;;;14.60;97.30;;;;;;5018471;28;20215;-92
2021/08/12 05:29:00;;;;;;;16.07;9.23;;;14.60;97.30;;;;;;5018196;28;20266;-93
2021/08/12 05:31:26;;;;;;;18.03;9.60;;;14.70;97.30;;;;;;5017696;28;20203;-92
2021/08/12 05:33:52;;;;;;;20.57;10.20;;;14.80;97.30;;;;;;5018562;28;20185;-92
2021/08/12 05:36:17;;;;;;;20.53;9.80;;;14.80;97.30;;;;;;5016803;28;20184;-92
2021/08/12 05:38:43;;;;;;;19.27;10.33;;;14.90;97.30;;;;;;5017715;28;20224;-92
2021/08/12 05:41:09;;;;;;;18.67;9.30;;;14.90;97.30;;;;;;5017931;28;20235;-92
2021/08/12 05:43:35;;;;;;;20.20;9.90;;;15.00;97.30;;;;;;5018335;28;20180;-92
2021/08/12 05:46:00;;;;;;;21.27;10.10;;;15.00;97.30;;;;;;5017785;28;20204;-92
2021/08/12 05:48:26;;;;;;;22.03;11.03;;;15.10;97.30;;;;;;5019290;28;20422;-93
2021/08/12 05:50:51;;;;;;;20.40;10.27;;;15.10;97.30;;;;;;5019899;28;20203;-92
2021/08/12 05:53:19;;;;;;;20.67;9.50;;;15.20;97.30;;;;;;5019328;28;20196;-92
2021/08/12 05:55:45;;;;;;;19.30;9.17;;;15.20;97.30;;;;;;5036707;28;20187;-92
2021/08/12 05:58:10;;;;;;;23.00;10.47;;;15.30;97.30;;;;;;5018263;28;20423;-93
2021/08/12 06:00:36;;;;;;;22.97;10.00;;;15.40;97.30;;;;;;5017991;28;20758;-93
2021/08/12 06:03:08;;;;;;;24.80;10.20;;;15.50;97.30;;;;;;5017644;28;20192;-92
2021/08/12 06:05:37;;;;;;;23.07;10.40;;;15.60;97.30;;;;;;5017372;28;20185;-92
2021/08/12 06:08:04;;;;;;;26.60;11.63;;;15.60;97.30;;;;;;5017085;28;20424;-92
2021/08/12 06:10:31;;;;;;;21.37;10.43;;;15.70;97.30;;;;;;5016696;28;20619;-92
2021/08/12 06:12:57;;;;;;;15.53;9.47;;;15.80;97.30;;;;;;5017018;28;20824;-92
2021/08/12 06:15:24;;;;;;;22.73;11.30;;;15.90;97.30;;;;;;5017561;28;20562;-92
2021/08/12 06:17:50;;;;;;;22.23;10.77;;;16.00;97.30;;;;;;5016839;28;20431;-92
2021/08/12 06:20:16;;;;;;;19.80;9.50;;;16.10;97.30;;;;;;5018206;28;20465;-93
2021/08/12 06:22:42;;;;;;;21.67;10.27;;;16.20;97.30;;;;;;5018401;28;20415;-92
2021/08/12 06:25:08;;;;;;;16.97;9.20;;;16.30;97.30;;;;;;5018903;28;20938;-93
2021/08/12 06:27:34;;;;;;;24.00;9.63;;;16.40;97.30;;;;;;5018290;28;20462;-92
2021/08/12 06:29:59;;;;;;;16.57;9.67;;;16.50;97.30;;;;;;5018155;28;20447;-92
2021/08/12 06:32:27;;;;;;;17.03;8.47;;;16.60;97.30;;;;;;5017290;28;20180;-92
2021/08/12 06:34:52;;;;;;;20.13;11.20;;;16.70;97.30;;;;;;5017299;28;20658;-92
2021/08/12 06:37:18;;;;;;;17.23;8.97;;;16.80;97.30;;;;;;5017323;28;20461;-92
2021/08/12 06:39:43;;;;;;;21.90;10.97;;;16.90;97.30;;;;;;5016837;28;20239;-92
2021/08/12 06:42:10;;;;;;;17.90;8.97;;;17.00;97.30;;;;;;5034572;28;20180;-92
2021/08/12 06:44:36;;;;;;;20.10;9.50;;;17.10;97.30;;;;;;5003827;28;20426;-92
2021/08/12 06:47:02;;;;;;;14.40;8.03;;;17.20;97.30;;;;;;5020840;28;20454;-92
2021/08/12 06:49:27;;;;;;;17.10;8.37;;;17.20;97.30;;;;;;5020301;28;20219;-92
2021/08/12 06:51:53;;;;;;;19.30;8.80;;;17.30;97.30;;;;;;5021155;28;20169;-92
2021/08/12 06:54:19;;;;;;;16.77;8.60;;;17.50;97.30;;;;;;5022267;28;20207;-92
2021/08/12 06:56:44;;;;;;;16.10;8.73;;;17.60;97.30;;;;;;5040245;28;20412;-92
2021/08/12 06:59:10;;;;;;;14.97;8.70;;;17.70;97.30;;;;;;5022086;28;20227;-92
2021/08/12 07:01:35;;;;;;;17.83;7.30;;;17.80;97.30;;;;;;5022102;28;20196;-92
2021/08/12 07:04:01;;;;;;;19.70;8.87;;;18.00;97.30;;;;;;5021690;28;20180;-92
2021/08/12 07:06:26;;;;;;;19.67;8.13;;;18.10;97.30;;;;;;5020768;28;20211;-92
2021/08/12 07:08:53;;;;;;;16.60;8.20;;;18.20;97.30;;;;;;5021298;28;20195;-91
2021/08/12 07:11:20;;;;;;;18.30;8.27;;;18.30;97.30;;;;;;5020786;28;20686;-92
2021/08/12 07:13:46;;;;;;;14.67;7.40;;;18.50;97.30;;;;;;5020304;28;20469;-92
2021/08/12 07:16:14;;;;;;;17.27;8.53;;;18.60;97.30;;;;;;5019291;28;20422;-92
2021/08/12 07:18:43;;;;;;;15.70;7.73;;;18.60;97.30;;;;;;5020438;28;20423;-92
2021/08/12 07:21:20;;;;;;;11.67;7.50;;;18.80;97.30;;;;;;5020495;28;20493;-91
2021/08/12 07:23:49;;;;;;;15.33;7.47;;;18.80;97.30;;;;;;5020147;28;20457;-91
2021/08/12 07:26:17;;;;;;;10.97;7.13;;;18.90;97.30;;;;;;5020488;28;20996;-91
2021/08/12 07:28:48;;;;;;;10.00;6.23;;;19.10;97.30;;;;;;5020909;28;20415;-92
2021/08/12 07:31:17;;;;;;;11.53;6.70;;;19.20;97.30;;;;;;5021894;28;20807;-92
2021/08/12 07:33:49;;;;;;;11.43;6.43;;;19.40;97.30;;;;;;5021096;28;20411;-92
2021/08/12 07:36:17;;;;;;;14.70;6.87;;;19.40;97.30;;;;;;5021882;28;20481;-92
2021/08/12 07:38:47;;;;;;;11.90;6.80;;;19.50;97.30;;;;;;5020631;28;20433;-92
2021/08/12 07:41:17;;;;;;;11.13;6.40;;;19.60;97.30;;;;;;5019733;28;20472;-92
2021/08/12 07:43:45;;;;;;;12.70;7.03;;;19.80;97.30;;;;;;5019846;28;20419;-92
2021/08/12 07:46:13;;;;;;;10.63;6.17;;;19.90;97.30;;;;;;5019915;28;20450;-92
2021/08/12 07:48:40;;;;;;;11.73;6.40;;;20.00;97.30;;;;;;5020140;28;20412;-91
2021/08/12 07:51:06;;;;;;;8.30;5.60;;;20.10;97.30;;;;;;5019819;28;20485;-92
2021/08/12 07:53:34;;;;;;;9.23;5.67;;;20.20;97.30;;;;;;5018887;28;20956;-92
2021/08/12 07:56:00;;;;;;;11.40;6.20;;;20.40;97.30;;;;;;5019965;28;20447;-92
2021/08/12 07:58:29;;;;;;;15.50;5.90;;;20.50;97.30;;;;;;5020393;28;21000;-92
2021/08/12 08:00:57;;;;;;;9.57;5.90;;;20.70;97.30;;;;;;5019509;28;20434;-91
2021/08/12 08:03:29;;;;;;;7.40;4.97;;;20.80;97.30;;;;;;5019737;28;20416;-92
2021/08/12 08:06:00;;;;;;;10.33;5.60;;;20.90;97.30;;;;;;5020970;28;20893;-92
2021/08/12 08:08:29;;;;;;;9.07;5.00;;;21.10;97.30;;;;;;5021177;28;20415;-91
2021/08/12 08:10:55;;;;;;;9.20;5.50;;;21.20;97.30;;;;;;5020758;28;20486;-92
2021/08/12 08:13:20;;;;;;;9.87;5.93;;;21.40;97.30;;;;;;5020426;28;20419;-92
2021/08/12 08:15:46;;;;;;;7.27;5.07;;;21.40;97.30;;;;;;5020762;28;20491;-93
2021/08/12 08:18:11;;;;;;;8.83;4.87;;;21.60;97.30;;;;;;5019660;28;20271;-92
2021/08/12 08:20:37;;;;;;;7.10;4.70;;;21.70;97.30;;;;;;5019511;28;20674;-91
2021/08/12 08:23:05;;;;;;;6.70;4.93;;;21.80;97.30;;;;;;5019550;28;20912;-92
2021/08/12 08:25:31;;;;;;;9.00;4.67;;;21.80;97.30;;;;;;5018757;28;20181;-91
2021/08/12 08:27:57;;;;;;;7.20;4.40;;;22.00;97.30;;;;;;5019744;28;20515;-92
2021/08/12 08:30:23;;;;;;;6.80;4.33;;;22.10;97.30;;;;;;5018256;28;20193;-92
2021/08/12 08:32:48;;;;;;;8.00;4.83;;;22.20;94.70;;;;;;5018478;28;20180;-92
2021/08/12 08:35:14;;;;;;;7.50;5.07;;;22.30;95.30;;;;;;5019035;28;20180;-92
2021/08/12 08:37:39;;;;;;;9.50;5.60;;;22.40;93.30;;;;;;5018715;28;20712;-92
2021/08/12 08:40:06;;;;;;;6.93;4.57;;;22.50;96.10;;;;;;5018390;28;20282;-92
2021/08/12 08:42:32;;;;;;;13.90;4.40;;;22.70;96.30;;;;;;5018854;28;20185;-92
2021/08/12 08:44:58;;;;;;;7.00;4.27;;;22.80;91.90;;;;;;5019656;28;20494;-91
2021/08/12 08:47:25;;;;;;;8.13;4.27;;;22.80;94.00;;;;;;5019898;28;20458;-91
2021/08/12 08:49:53;;;;;;;9.03;5.10;;;22.90;94.30;;;;;;5020430;28;20439;-92
2021/08/12 08:52:22;;;;;;;6.60;4.70;;;22.90;94.70;;;;;;5020614;28;20447;-92
2021/08/12 08:54:49;;;;;;;6.07;4.40;;;23.00;91.60;;;;;;5020190;28;20415;-91
2021/08/12 08:57:15;;;;;;;7.63;4.50;;;23.00;91.80;;;;;;5019720;28;20449;-91
2021/08/12 08:59:41;;;;;;;8.27;4.80;;;23.10;92.30;;;;;;5018932;28;20434;-91
2021/08/12 09:02:08;;;;;;;6.43;4.33;;;23.20;91.10;;;;;;5020575;28;20419;-91
2021/08/12 09:04:35;;;;;;;8.23;5.10;;;23.20;89.70;;;;;;5021166;28;20475;-92
2021/08/12 09:07:05;;;;;;;7.30;5.00;;;23.20;91.20;;;;;;5023182;28;20988;-92
2021/08/12 09:09:32;;;;;;;9.37;6.00;;;23.30;89.90;;;;;;5023400;28;20435;-92
2021/08/12 09:12:00;;;;;;;7.20;5.40;;;23.40;92.60;;;;;;5022582;28;20463;-91
2021/08/12 09:14:35;;;;;;;9.37;5.33;;;23.50;93.30;;;;;;5022161;28;20415;-91
2021/08/12 09:17:20;;;;;;;8.50;5.60;;;23.60;91.80;;;;;;5012105;28;20575;-92
2021/08/12 09:20:10;;;;;;;9.13;5.10;;;23.70;90.60;;;;;;5002230;28;20446;-91
2021/08/12 09:22:49;;;;;;;13.60;6.17;;;23.80;90.20;;;;;;5002453;28;20420;-91
2021/08/12 09:25:16;;;;;;;9.83;5.13;;;24.00;90.90;;;;;;5002927;28;20475;-92
2021/08/12 09:27:42;;;;;;;6.77;4.37;;;24.10;89.90;;;;;;5001599;28;20483;-91
2021/08/12 09:30:15;;;;;;;8.40;4.33;;;24.20;92.00;;;;;;5000755;28;20443;-91
2021/08/12 09:32:49;;;;;;;9.47;5.10;;;24.30;89.60;;;;;;5002127;28;20484;-91
2021/08/12 09:35:25;;;;;;;8.20;4.73;;;24.40;90.10;;;;;;5028327;23;20586;-86
2021/08/12 09:37:51;;;;;;;6.80;5.13;;;24.50;88.50;;;;;;5016883;28;20510;-84
2021/08/12 09:40:24;;;;;;;7.13;4.80;;;24.50;89.90;;;;;;5030353;23;20904;-78
2021/08/12 09:42:58;;;;;;;8.17;4.70;;;24.50;89.20;;;;;;5014894;28;20506;-78
2021/08/12 09:45:25;;;;;;;7.00;5.20;;;24.40;87.90;;;;;;5014736;28;20763;-78
2021/08/12 09:47:51;;;;;;;5.63;4.47;;;24.20;86.70;;;;;;5032584;28;20466;-78
2021/08/12 09:50:31;;;;;;;5.27;4.23;;;24.20;87.90;;;;;;5032496;28;20415;-77
2021/08/12 09:52:57;;;;;;;5.70;4.30;;;24.20;88.70;;;;;;5015177;28;20403;-77
2021/08/12 09:55:23;;;;;;;5.77;3.87;;;24.20;86.00;;;;;;5014877;28;20434;-78
2021/08/12 09:57:50;;;;;;;8.17;4.50;;;24.40;84.00;;;;;;5015118;28;20584;-77
2021/08/12 10:00:25;;;;;;;7.20;4.40;;;24.50;84.10;;;;;;5032529;28;20465;-78
2021/08/12 10:02:51;;;;;;;7.30;3.83;;;24.70;86.10;;;;;;5032285;28;20458;-77
2021/08/12 10:05:17;;;;;;;10.00;4.70;;;24.80;85.70;;;;;;5032395;28;20411;-78
2021/08/12 10:07:45;;;;;;;5.30;5.00;;;24.70;86.80;;;;;;5014512;28;20573;-79
2021/08/12 10:10:19;;;;;;;7.03;4.60;;;24.70;87.00;;;;;;5032426;28;20212;-77
2021/08/12 10:12:51;;;;;;;7.53;4.67;;;24.80;87.40;;;;;;5014545;28;20706;-77
2021/08/12 10:15:28;;;;;;;7.00;4.40;;;24.90;88.20;;;;;;5014439;28;20851;-78
2021/08/12 10:17:55;;;;;;;9.77;4.80;;;25.10;87.10;;;;;;5013874;28;20967;-78
2021/08/12 10:20:30;;;;;;;6.20;4.50;;;25.20;85.40;;;;;;5014498;28;20947;-77
2021/08/12 10:22:57;;;;;;;5.33;3.80;;;25.30;86.20;;;;;;5014624;28;20610;-77
2021/08/12 10:25:25;;;;;;;6.23;4.17;;;25.20;82.30;;;;;;5014431;28;20936;-78
2021/08/12 10:27:56;;;;;;;6.40;3.60;;;25.30;84.00;;;;;;5014010;28;20831;-78
2021/08/12 10:30:23;;;;;;;5.37;4.27;;;25.20;83.70;;;;;;5031832;28;20442;-78
2021/08/12 10:32:54;;;;;;;5.77;3.80;;;25.30;84.70;;;;;;5031880;28;20921;-78
2021/08/12 10:35:21;;;;;;;5.70;3.87;;;25.30;84.60;;;;;;5014714;28;20502;-77
2021/08/12 10:37:48;;;;;;;5.33;3.57;;;25.40;85.10;;;;;;5014032;28;20435;-77
2021/08/12 10:40:15;;;;;;;6.80;4.50;;;25.40;85.30;;;;;;5014209;28;20505;-77
2021/08/12 10:42:44;;;;;;;8.60;4.57;;;25.40;82.40;;;;;;5014324;28;20792;-77
2021/08/12 10:45:10;;;;;;;6.57;3.43;;;25.40;83.40;;;;;;5014619;28;20443;-78
2021/08/12 10:48:17;;;;;;;5.40;3.87;;;25.50;84.10;;;;;;5013543;28;20455;-78
2021/08/12 10:50:43;;;;;;;7.30;3.93;;;25.60;82.50;;;;;;5018372;28;20423;-78
2021/08/12 10:53:11;;;;;;;8.00;4.20;;;25.60;81.10;;;;;;5031540;28;20422;-79
2021/08/12 10:56:02;;;;;;;7.37;4.23;;;25.70;81.50;;;;;;5031708;28;20200;-77
2021/08/12 10:58:31;;;;;;;6.80;4.23;;;25.80;80.80;;;;;;5013869;28;20431;-78
2021/08/12 11:01:01;;;;;;;6.10;3.43;;;25.90;84.80;;;;;;5013557;28;20483;-78
2021/08/12 11:03:33;;;;;;;6.00;4.03;;;26.10;84.50;;;;;;5031814;28;20411;-78
2021/08/12 11:06:06;;;;;;;5.90;3.50;;;26.20;82.90;;;;;;5013306;28;20497;-78
2021/08/12 11:08:54;;;;;;;6.10;3.27;;;26.30;81.70;;;;;;5031475;28;20841;-78
2021/08/12 11:11:25;;;;;;;4.30;3.60;;;26.40;81.60;;;;;;5031585;28;20411;-78
2021/08/12 11:13:55;;;;;;;6.80;4.30;;;26.40;79.50;;;;;;5031508;28;20407;-77
2021/08/12 11:16:22;;;;;;;5.00;3.83;;;26.40;79.40;;;;;;5031413;28;20844;-78
2021/08/12 11:18:59;;;;;;;5.80;3.70;;;26.40;76.30;;;;;;5031280;28;20963;-78
2021/08/12 11:21:30;;;;;;;6.47;3.73;;;26.50;76.60;;;;;;5031704;28;20511;-78
2021/08/12 11:24:09;;;;;;;5.37;3.73;;;26.60;79.20;;;;;;5031649;28;20987;-78
2021/08/12 11:26:40;;;;;;;6.53;3.77;;;26.70;79.90;;;;;;5013880;28;20455;-77
2021/08/12 11:29:07;;;;;;;5.60;3.83;;;26.70;82.60;;;;;;5032179;28;20431;-77
2021/08/12 11:31:32;;;;;;;9.27;3.87;;;26.70;79.90;;;;;;5017223;28;20785;-78
2021/08/12 11:34:01;;;;;;;5.27;3.73;;;26.60;78.40;;;;;;5017746;28;20415;-79
2021/08/12 11:36:31;;;;;;;6.80;4.47;;;26.50;78.50;;;;;;5017475;28;20177;-78
2021/08/12 11:39:04;;;;;;;5.83;4.00;;;26.60;80.80;;;;;;5017084;28;20529;-78
2021/08/12 11:41:41;;;;;;;6.30;4.13;;;26.60;80.00;;;;;;5034365;28;20506;-79
2021/08/12 11:44:12;;;;;;;7.70;4.03;;;26.60;81.10;;;;;;5035031;28;20402;-77
2021/08/12 11:46:39;;;;;;;5.40;4.10;;;26.70;78.80;;;;;;5017451;28;20455;-78
2021/08/12 11:49:06;;;;;;;6.30;3.90;;;26.90;80.80;;;;;;5016790;28;20493;-78
2021/08/12 11:51:33;;;;;;;5.87;3.67;;;27.10;80.10;;;;;;5016888;28;20415;-78
2021/08/12 11:53:59;;;;;;;6.97;3.97;;;27.30;81.00;;;;;;5016963;28;20461;-78
2021/08/12 11:56:27;;;;;;;6.17;4.07;;;27.50;81.60;;;;;;5034734;28;20478;-78
2021/08/12 11:58:58;;;;;;;6.50;3.43;;;27.70;81.70;;;;;;5034602;28;20558;-78
2021/08/12 12:01:30;;;;;;;6.80;3.83;;;27.90;79.70;;;;;;5034313;28;20554;-78
2021/08/12 12:04:04;;;;;;;6.23;3.57;;;28.00;80.70;;;;;;5017011;28;20430;-78
2021/08/12 12:06:38;;;;;;;5.27;3.07;;;28.10;80.60;;;;;;5016908;28;20975;-78
2021/08/12 12:09:26;;;;;;;5.50;3.47;;;28.20;78.50;;;;;;5034558;28;20424;-78
2021/08/12 12:12:00;;;;;;;6.60;3.80;;;28.30;77.30;;;;;;5018719;28;21003;-78
2021/08/12 12:14:29;;;;;;;6.07;3.50;;;28.30;77.70;;;;;;5016221;28;20422;-78
2021/08/12 12:17:12;;;;;;;7.67;4.10;;;28.20;77.50;;;;;;5034201;28;20416;-78
2021/08/12 12:20:07;;;;;;;5.30;3.70;;;28.20;77.30;;;;;;5016366;28;20442;-79
2021/08/12 12:22:34;;;;;;;4.30;3.50;;;28.20;76.60;;;;;;5033981;28;20411;-79
2021/08/12 12:25:02;;;;;;;4.73;3.30;;;28.20;77.40;;;;;;5016217;28;20419;-78
2021/08/12 12:27:28;;;;;;;5.67;3.70;;;28.30;78.70;;;;;;5016040;28;20467;-78
2021/08/12 12:30:03;;;;;;;5.43;3.90;;;28.30;75.10;;;;;;5034124;28;20399;-78
2021/08/12 12:32:29;;;;;;;6.20;3.80;;;28.20;74.30;;;;;;5033823;28;20414;-77
2021/08/12 12:34:55;;;;;;;5.60;3.00;;;28.20;75.60;;;;;;5033659;28;21011;-77
2021/08/12 12:37:22;;;;;;;6.23;4.10;;;28.30;73.70;;;;;;5016144;28;20719;-78
2021/08/12 12:39:49;;;;;;;4.80;3.73;;;28.30;73.70;;;;;;5016021;28;20442;-79
2021/08/12 12:42:16;;;;;;;11.80;3.60;;;28.40;73.90;;;;;;5034162;28;20423;-77
2021/08/12 12:45:07;;;;;;;6.20;3.63;;;28.40;73.60;;;;;;5015223;28;20423;-78
2021/08/12 12:47:35;;;;;;;5.33;3.80;;;28.30;76.10;;;;;;5015928;28;20462;-78